createdAt,value
2023-04-23T00:01:04.343Z,31.53
2023-04-23T00:03:34.464Z,34.63
2023-04-23T00:06:06.084Z,31.70
2023-04-23T00:08:34.254Z,33.17
2023-04-23T00:11:02.620Z,32.60
2023-04-23T00:13:31.057Z,33.43
2023-04-23T00:16:01.008Z,32.47
2023-04-23T00:18:29.555Z,32.53
2023-04-23T00:20:57.557Z,33.77
2023-04-23T00:23:25.540Z,33.27
2023-04-23T00:25:53.801Z,30.43
2023-04-23T00:28:22.335Z,33.20
2023-04-23T00:30:51.076Z,31.90
2023-04-23T00:33:20.656Z,31.73
2023-04-23T00:35:48.746Z,34.57
2023-04-23T00:38:16.933Z,33.43
2023-04-23T00:40:45.009Z,33.00
2023-04-23T00:43:13.659Z,31.73
2023-04-23T00:45:41.593Z,33.43
2023-04-23T00:48:09.796Z,32.53
2023-04-23T00:50:39.044Z,33.33
2023-04-23T00:53:07.017Z,34.57
2023-04-23T00:55:35.537Z,31.37
2023-04-23T00:58:03.641Z,34.67
2023-04-23T01:00:31.497Z,31.87
2023-04-23T01:02:59.688Z,33.13
2023-04-23T01:05:28.289Z,33.00
2023-04-23T01:07:57.744Z,29.87
2023-04-23T01:10:26.084Z,32.20
2023-04-23T01:12:54.468Z,33.27
2023-04-23T01:15:22.400Z,31.77
2023-04-23T01:17:50.642Z,35.50
2023-04-23T01:20:18.611Z,34.87
2023-04-23T01:22:47.876Z,35.93
2023-04-23T01:25:15.896Z,33.00
2023-04-23T01:27:44.051Z,33.43
2023-04-23T01:30:13.176Z,34.27
2023-04-23T01:32:42.435Z,34.00
2023-04-23T01:35:13.023Z,30.90
2023-04-23T01:37:41.376Z,32.83
2023-04-23T01:40:11.688Z,32.67
2023-04-23T01:42:39.974Z,34.07
2023-04-23T01:45:09.643Z,34.03
2023-04-23T01:47:37.835Z,33.00
2023-04-23T01:50:06.572Z,31.93
2023-04-23T01:52:34.372Z,31.33
2023-04-23T01:55:02.386Z,30.17
2023-04-23T01:57:31.855Z,29.43
2023-04-23T02:00:08.011Z,32.13
2023-04-23T02:02:36.246Z,29.87
2023-04-23T02:05:05.783Z,32.93
2023-04-23T02:07:34.315Z,30.90
2023-04-23T02:10:04.012Z,31.07
2023-04-23T02:12:33.333Z,30.97
2023-04-23T02:15:01.449Z,28.27
2023-04-23T02:17:29.714Z,29.80
2023-04-23T02:19:57.588Z,28.10
2023-04-23T02:22:26.618Z,30.77
2023-04-23T02:24:55.087Z,30.80
2023-04-23T02:27:23.478Z,30.47
2023-04-23T02:29:53.405Z,29.90
2023-04-23T02:32:21.334Z,32.13
2023-04-23T02:34:49.517Z,29.37
2023-04-23T02:37:17.362Z,28.10
2023-04-23T02:39:45.425Z,29.23
2023-04-23T02:42:14.787Z,30.87
2023-04-23T02:44:43.099Z,28.30
2023-04-23T02:47:12.876Z,31.40
2023-04-23T02:49:40.684Z,28.63
2023-04-23T02:52:08.619Z,27.57
2023-04-23T02:54:37.141Z,29.20
2023-04-23T02:57:05.281Z,27.77
2023-04-23T02:59:33.227Z,28.03
2023-04-23T03:02:01.194Z,27.90
2023-04-23T03:04:30.483Z,27.20
2023-04-23T03:06:58.532Z,27.07
2023-04-23T03:09:26.374Z,26.50
2023-04-23T03:11:54.150Z,26.30
2023-04-23T03:14:21.986Z,25.70
2023-04-23T03:16:50.444Z,24.93
2023-04-23T03:19:18.617Z,24.83
2023-04-23T03:21:47.820Z,24.67
2023-04-23T03:24:17.612Z,23.70
2023-04-23T03:26:45.689Z,24.53
2023-04-23T03:29:13.814Z,24.87
2023-04-23T03:31:41.631Z,25.67
2023-04-23T03:34:09.446Z,23.07
2023-04-23T03:36:37.262Z,24.03
2023-04-23T03:39:07.149Z,23.53
2023-04-23T03:41:34.983Z,24.70
2023-04-23T03:44:02.797Z,24.47
2023-04-23T03:46:30.790Z,24.23
2023-04-23T03:48:58.694Z,22.47
2023-04-23T03:51:27.336Z,23.87
2023-04-23T03:53:55.166Z,24.67
2023-04-23T03:56:26.957Z,23.03
2023-04-23T03:58:54.951Z,22.90
2023-04-23T04:01:23.369Z,23.10
2023-04-23T04:03:51.406Z,23.47
2023-04-23T04:06:19.417Z,21.03
2023-04-23T04:08:47.418Z,22.27
2023-04-23T04:11:15.683Z,21.67
2023-04-23T04:13:45.163Z,21.07
2023-04-23T04:16:13.368Z,22.33
2023-04-23T04:18:41.222Z,20.13
2023-04-23T04:21:09.049Z,20.90
2023-04-23T04:23:37.406Z,22.03
2023-04-23T04:26:05.579Z,19.17
2023-04-23T04:28:36.130Z,21.70
2023-04-23T04:31:06.839Z,20.47
2023-04-23T04:33:35.697Z,20.83
2023-04-23T04:36:03.596Z,20.57
2023-04-23T04:38:31.476Z,20.37
2023-04-23T04:41:02.159Z,20.37
2023-04-23T04:43:30.227Z,19.77
2023-04-23T04:45:59.298Z,18.83
2023-04-23T04:48:28.503Z,19.40
2023-04-23T04:50:56.736Z,18.40
2023-04-23T04:53:24.596Z,18.73
2023-04-23T04:55:52.829Z,19.10
2023-04-23T04:58:20.685Z,20.13
2023-04-23T05:00:51.824Z,17.67
2023-04-23T05:03:19.959Z,18.87
2023-04-23T05:05:49.659Z,16.73
2023-04-23T05:08:18.657Z,17.00
2023-04-23T05:10:46.550Z,17.30
2023-04-23T05:13:14.577Z,17.77
2023-04-23T05:15:42.433Z,16.40
2023-04-23T05:18:11.583Z,17.53
2023-04-23T05:20:39.605Z,17.50
2023-04-23T05:23:08.773Z,16.50
2023-04-23T05:25:36.642Z,16.20
2023-04-23T05:28:04.534Z,17.23
2023-04-23T05:30:32.378Z,16.73
2023-04-23T05:33:00.345Z,16.77
2023-04-23T05:35:28.359Z,16.97
2023-04-23T05:37:56.697Z,17.43
2023-04-23T05:40:25.848Z,16.80
2023-04-23T05:42:53.740Z,15.30
2023-04-23T05:45:21.728Z,16.33
2023-04-23T05:47:49.735Z,15.87
2023-04-23T05:50:17.848Z,16.50
2023-04-23T05:52:45.873Z,15.43
2023-04-23T05:55:15.644Z,16.33
2023-04-23T05:57:45.218Z,16.60
2023-04-23T06:00:14.222Z,15.70
2023-04-23T06:02:42.719Z,15.13
2023-04-23T06:05:12.107Z,15.93
2023-04-23T06:07:41.087Z,15.67
2023-04-23T06:10:09.932Z,15.33
2023-04-23T06:12:39.118Z,15.10
2023-04-23T06:15:09.791Z,15.20
2023-04-23T06:17:37.796Z,14.93
2023-04-23T06:20:07.583Z,15.00
2023-04-23T06:22:35.432Z,14.77
2023-04-23T06:25:03.821Z,14.13
2023-04-23T06:27:32.560Z,13.47
2023-04-23T06:30:00.409Z,14.37
2023-04-23T06:32:29.597Z,14.90
2023-04-23T06:35:01.574Z,15.43
2023-04-23T06:37:31.710Z,13.57
2023-04-23T06:40:00.394Z,14.27
2023-04-23T06:42:28.319Z,14.13
2023-04-23T06:44:56.511Z,13.13
2023-04-23T06:47:24.332Z,13.40
2023-04-23T06:49:53.481Z,12.20
2023-04-23T06:52:21.358Z,12.40
2023-04-23T06:54:49.514Z,12.60
2023-04-23T06:57:17.317Z,12.47
2023-04-23T06:59:45.153Z,12.20
2023-04-23T07:02:13.288Z,11.65
2023-04-23T07:04:42.000Z,11.40
2023-04-23T07:07:12.176Z,11.23
2023-04-23T07:09:39.997Z,11.38
2023-04-23T07:12:07.904Z,11.38
2023-04-23T07:14:35.770Z,11.50
2023-04-23T07:17:03.831Z,10.60
2023-04-23T07:19:32.037Z,10.88
2023-04-23T07:21:59.906Z,10.07
2023-04-23T07:24:29.211Z,10.68
2023-04-23T07:26:57.180Z,9.75
2023-04-23T07:29:25.034Z,9.63
2023-04-23T07:31:52.869Z,9.93
2023-04-23T07:34:20.786Z,8.07
2023-04-23T07:36:48.716Z,8.98
2023-04-23T07:39:16.786Z,8.77
2023-04-23T07:41:46.395Z,8.07
2023-04-23T07:44:14.436Z,7.75
2023-04-23T07:46:42.212Z,7.22
2023-04-23T07:49:10.179Z,7.22
2023-04-23T07:51:38.266Z,7.03
2023-04-23T07:54:06.340Z,7.13
2023-04-23T07:56:34.114Z,7.55
2023-04-23T07:59:03.478Z,7.05
2023-04-23T08:01:31.520Z,6.28
2023-04-23T08:04:00.753Z,6.50
2023-04-23T08:06:30.154Z,6.95
2023-04-23T08:08:58.389Z,6.63
2023-04-23T08:11:26.216Z,6.85
2023-04-23T08:13:54.013Z,5.78
2023-04-23T08:16:23.291Z,5.68
2023-04-23T08:19:04.222Z,6.00
2023-04-23T08:21:33.140Z,6.05
2023-04-23T08:24:02.774Z,6.30
2023-04-23T08:26:30.942Z,5.53
2023-04-23T08:29:00.749Z,5.55
2023-04-23T08:31:30.088Z,6.13
2023-04-23T08:33:58.503Z,5.35
2023-04-23T08:36:27.602Z,5.88
2023-04-23T08:38:55.502Z,5.82
2023-04-23T08:41:28.489Z,5.93
2023-04-23T08:44:06.932Z,5.40
2023-04-23T08:46:38.321Z,5.28
2023-04-23T08:49:08.897Z,5.93
2023-04-23T08:51:39.612Z,5.70
2023-04-23T08:54:15.994Z,5.50
2023-04-23T08:56:45.121Z,5.57
2023-04-23T08:59:14.106Z,4.82
2023-04-23T09:01:43.491Z,4.85
2023-04-23T09:04:12.350Z,4.95
2023-04-23T09:06:40.263Z,4.85
2023-04-23T09:09:09.473Z,5.32
2023-04-23T09:11:38.291Z,5.07
2023-04-23T09:14:06.476Z,4.65
2023-04-23T09:16:34.350Z,4.65
2023-04-23T09:19:03.881Z,3.88
2023-04-23T09:21:31.731Z,3.92
2023-04-23T09:23:59.544Z,3.75
2023-04-23T09:26:27.351Z,3.75
2023-04-23T09:28:55.142Z,3.95
2023-04-23T09:31:24.346Z,3.97
2023-04-23T09:33:53.410Z,4.22
2023-04-23T09:36:24.209Z,3.85
2023-04-23T09:38:56.939Z,3.65
2023-04-23T09:41:25.650Z,3.85
2023-04-23T09:43:54.864Z,3.47
2023-04-23T09:46:34.991Z,3.92
2023-04-23T09:49:06.012Z,4.05
2023-04-23T09:51:37.418Z,3.53
2023-04-23T09:54:05.920Z,3.30
2023-04-23T09:56:34.012Z,3.22
2023-04-23T09:59:01.941Z,3.10
2023-04-23T10:01:30.533Z,3.28
2023-04-23T10:03:59.005Z,3.13
2023-04-23T10:09:06.066Z,3.08
2023-04-23T10:11:33.873Z,3.80
2023-04-23T10:14:02.187Z,3.05
2023-04-23T10:16:38.576Z,2.72
2023-04-23T10:19:13.649Z,2.78
2023-04-23T10:21:53.376Z,3.15
2023-04-23T10:24:24.929Z,2.75
2023-04-23T10:26:54.754Z,2.38
2023-04-23T10:29:27.616Z,2.20
2023-04-23T10:31:57.425Z,2.58
2023-04-23T10:34:26.708Z,2.58
2023-04-23T10:36:56.552Z,2.30
2023-04-23T10:39:30.131Z,2.45
2023-04-23T10:41:59.976Z,2.45
2023-04-23T10:44:57.461Z,2.97
2023-04-23T10:47:22.846Z,2.50
2023-04-23T10:49:51.654Z,2.75
2023-04-23T10:52:23.554Z,3.08
2023-04-23T10:55:00.761Z,2.50
2023-04-23T10:57:28.673Z,2.22
2023-04-23T10:59:58.893Z,1.92
2023-04-23T11:02:27.488Z,2.28
2023-04-23T11:04:57.939Z,2.20
2023-04-23T11:07:30.905Z,2.08
2023-04-23T11:10:02.003Z,1.80
2023-04-23T11:12:34.227Z,1.75
2023-04-23T11:15:12.423Z,1.77
2023-04-23T11:18:02.618Z,1.90
2023-04-23T11:20:30.577Z,1.70
2023-04-23T11:22:58.512Z,1.90
2023-04-23T11:25:30.269Z,1.67
2023-04-23T11:27:59.448Z,2.45
2023-04-23T11:30:29.202Z,1.60
2023-04-23T11:32:59.804Z,1.65
2023-04-23T11:35:29.305Z,1.55
2023-04-23T11:37:57.578Z,1.42
2023-04-23T11:40:30.505Z,2.10
2023-04-23T11:42:59.109Z,2.40
2023-04-23T11:45:29.156Z,2.00
2023-04-23T11:47:59.500Z,2.17
2023-04-23T11:50:29.728Z,1.60
2023-04-23T11:52:58.319Z,2.42
2023-04-23T11:55:29.985Z,1.98
2023-04-23T11:57:58.797Z,1.83
2023-04-23T12:00:28.137Z,1.77
2023-04-23T12:02:57.898Z,1.58
2023-04-23T12:05:29.903Z,1.67
2023-04-23T12:08:08.658Z,1.30
2023-04-23T12:10:43.555Z,1.65
2023-04-23T12:13:15.926Z,1.48
2023-04-23T12:15:48.676Z,1.55
2023-04-23T12:18:16.736Z,1.63
2023-04-23T12:20:45.938Z,1.30
2023-04-23T12:23:13.792Z,1.52
2023-04-23T12:25:43.917Z,1.63
2023-04-23T12:28:11.848Z,1.75
2023-04-23T12:30:45.424Z,1.20
2023-04-23T12:33:13.859Z,1.77
2023-04-23T12:35:43.539Z,1.40
2023-04-23T12:38:24.028Z,1.30
2023-04-23T12:40:53.729Z,1.48
2023-04-23T12:43:21.646Z,1.20
2023-04-23T12:45:50.323Z,1.42
2023-04-23T12:48:18.423Z,1.30
2023-04-23T12:50:46.849Z,1.52
2023-04-23T12:53:15.593Z,1.67
2023-04-23T12:55:45.550Z,1.75
2023-04-23T12:58:15.287Z,1.63
2023-04-23T13:00:43.538Z,1.83
2023-04-23T13:03:13.745Z,1.48
2023-04-23T13:05:41.622Z,1.80
2023-04-23T13:08:09.392Z,1.13
2023-04-23T13:10:38.004Z,2.30
2023-04-23T13:13:06.134Z,1.50
2023-04-23T13:15:35.511Z,1.30
2023-04-23T13:18:03.409Z,1.20
2023-04-23T13:20:31.280Z,1.08
2023-04-23T13:22:59.085Z,1.05
2023-04-23T13:25:26.929Z,1.30
2023-04-23T13:27:54.864Z,1.90
2023-04-23T13:30:22.883Z,1.25
2023-04-23T13:32:53.342Z,1.10
2023-04-23T13:35:21.412Z,1.10
2023-04-23T13:37:50.311Z,1.00
2023-04-23T13:40:18.482Z,1.25
2023-04-23T13:42:47.946Z,0.88
2023-04-23T13:45:16.087Z,1.27
2023-04-23T13:47:44.052Z,1.30
2023-04-23T13:50:14.716Z,1.40
2023-04-23T13:52:42.823Z,1.33
2023-04-23T13:55:11.550Z,1.13
2023-04-23T13:57:39.563Z,1.42
2023-04-23T14:00:08.753Z,1.27
2023-04-23T14:02:36.837Z,1.00
2023-04-23T14:05:06.591Z,1.45
2023-04-23T14:07:35.841Z,1.40
2023-04-23T14:10:04.448Z,1.25
2023-04-23T14:12:32.323Z,1.40
2023-04-23T14:15:00.187Z,1.30
2023-04-23T14:17:28.454Z,1.15
2023-04-23T14:19:56.483Z,1.30
2023-04-23T14:22:24.761Z,1.38
2023-04-23T14:25:02.243Z,1.27
2023-04-23T14:27:33.301Z,1.25
2023-04-23T14:30:06.111Z,1.42
2023-04-23T14:32:33.955Z,1.17
2023-04-23T14:35:03.409Z,7.40
2023-04-23T14:37:31.427Z,1.73
2023-04-23T14:40:00.564Z,1.20
2023-04-23T14:42:28.432Z,1.30
2023-04-23T14:45:00.026Z,1.65
2023-04-23T14:47:27.827Z,1.60
2023-04-23T14:49:57.468Z,1.33
2023-04-23T14:52:25.556Z,1.40
2023-04-23T14:54:55.763Z,1.35
2023-04-23T14:57:25.020Z,1.45
2023-04-23T14:59:52.903Z,1.48
2023-04-23T15:02:21.393Z,1.90
2023-04-23T15:04:49.746Z,1.70
2023-04-23T15:07:17.636Z,1.10
2023-04-23T15:09:45.411Z,1.60
2023-04-23T15:12:45.247Z,1.45
2023-04-23T15:15:27.770Z,1.42
2023-04-23T15:18:01.564Z,1.25
2023-04-23T15:20:29.471Z,1.50
2023-04-23T15:22:57.418Z,1.38
2023-04-23T15:25:25.421Z,1.70
2023-04-23T15:27:57.723Z,1.55
2023-04-23T15:30:26.585Z,1.42
2023-04-23T15:32:55.219Z,1.70
2023-04-23T15:35:23.467Z,2.03
2023-04-23T15:37:51.716Z,1.77
2023-04-23T15:40:19.756Z,1.52
2023-04-23T15:42:49.590Z,2.00
2023-04-23T15:45:18.832Z,1.90
2023-04-23T15:47:46.755Z,1.90
2023-04-23T15:50:16.288Z,1.65
2023-04-23T15:52:44.480Z,1.77
2023-04-23T15:55:12.806Z,1.65
2023-04-23T15:57:40.664Z,1.20
2023-04-23T16:00:10.673Z,1.15
2023-04-23T16:02:40.032Z,1.33
2023-04-23T16:05:08.611Z,1.25
2023-04-23T16:07:36.629Z,1.40
2023-04-23T16:10:04.630Z,1.27
2023-04-23T16:12:32.791Z,1.52
2023-04-23T16:15:00.620Z,1.02
2023-04-23T16:17:29.700Z,1.35
2023-04-23T16:19:59.143Z,1.20
2023-04-23T16:22:26.956Z,1.33
2023-04-23T16:24:54.940Z,1.40
2023-04-23T16:27:23.357Z,1.15
2023-04-23T16:29:52.642Z,1.25
2023-04-23T16:32:20.641Z,0.95
2023-04-23T16:34:48.730Z,1.00
2023-04-23T16:37:18.178Z,1.15
2023-04-23T16:39:46.498Z,1.08
2023-04-23T16:42:14.713Z,1.10
2023-04-23T16:44:43.031Z,1.08
2023-04-23T16:47:11.500Z,1.00
2023-04-23T16:49:39.370Z,1.05
2023-04-23T16:52:07.231Z,1.00
2023-04-23T16:54:36.707Z,1.02
2023-04-23T16:57:07.238Z,1.15
2023-04-23T16:59:35.109Z,1.55
2023-04-23T17:02:02.976Z,1.10
2023-04-23T17:04:30.912Z,1.20
2023-04-23T17:06:59.022Z,1.38
2023-04-23T17:09:26.918Z,1.20
2023-04-23T17:11:56.616Z,1.00
2023-04-23T17:14:24.498Z,1.17
2023-04-23T17:16:52.453Z,1.50
2023-04-23T17:19:20.443Z,1.75
2023-04-23T17:21:48.548Z,1.58
2023-04-23T17:24:16.464Z,1.40
2023-04-23T17:26:44.834Z,1.52
2023-04-23T17:29:15.127Z,1.95
2023-04-23T17:31:43.065Z,1.58
2023-04-23T17:34:11.482Z,1.60
2023-04-23T17:36:39.303Z,1.50
2023-04-23T17:39:07.543Z,2.00
2023-04-23T17:41:35.492Z,1.77
2023-04-23T17:44:03.382Z,1.70
2023-04-23T17:46:32.508Z,1.33
2023-04-23T17:49:00.265Z,1.60
2023-04-23T17:51:28.097Z,1.75
2023-04-23T17:53:56.145Z,1.67
2023-04-23T17:56:23.959Z,1.65
2023-04-23T17:58:51.904Z,1.80
2023-04-23T18:01:19.749Z,1.67
2023-04-23T18:03:49.965Z,1.55
2023-04-23T18:06:18.301Z,1.83
2023-04-23T18:08:46.099Z,1.90
2023-04-23T18:11:14.216Z,1.90
2023-04-23T18:13:42.128Z,1.80
2023-04-23T18:16:10.538Z,1.75
2023-04-23T18:18:38.523Z,1.50
2023-04-23T18:21:07.821Z,1.63
2023-04-23T18:23:36.220Z,1.83
2023-04-23T18:26:04.101Z,2.00
2023-04-23T18:28:32.761Z,1.75
2023-04-23T18:31:02.608Z,2.10
2023-04-23T18:33:33.066Z,2.25
2023-04-23T18:36:05.650Z,2.17
2023-04-23T18:38:44.731Z,2.22
2023-04-23T18:41:12.789Z,2.47
2023-04-23T18:43:40.650Z,2.00
2023-04-23T18:46:08.575Z,2.20
2023-04-23T18:48:51.159Z,2.13
2023-04-23T18:51:27.495Z,2.08
2023-04-23T18:53:56.648Z,2.03
2023-04-23T18:56:25.109Z,1.75
2023-04-23T18:58:53.001Z,2.15
2023-04-23T19:01:24.121Z,2.20
2023-04-23T19:03:52.251Z,1.77
2023-04-23T19:06:20.314Z,2.10
2023-04-23T19:08:48.572Z,1.88
2023-04-23T19:11:17.718Z,2.10
2023-04-23T19:13:45.624Z,2.20
2023-04-23T19:16:16.293Z,2.20
2023-04-23T19:18:44.960Z,2.03
2023-04-23T19:21:13.665Z,2.13
2023-04-23T19:23:41.432Z,1.98
2023-04-23T19:26:09.746Z,2.67
2023-04-23T19:28:39.126Z,2.20
2023-04-23T19:31:07.658Z,1.95
2023-04-23T19:33:35.772Z,2.20
2023-04-23T19:36:03.739Z,2.17
2023-04-23T19:38:31.620Z,2.13
2023-04-23T19:40:59.443Z,2.00
2023-04-23T19:43:27.350Z,2.10
2023-04-23T19:45:56.615Z,2.03
2023-04-23T19:48:24.574Z,2.38
2023-04-23T19:50:52.408Z,2.00
2023-04-23T19:53:21.496Z,2.22
2023-04-23T19:55:49.642Z,2.25
2023-04-23T19:58:18.551Z,2.55
2023-04-23T20:00:46.705Z,2.47
2023-04-23T20:03:16.332Z,2.28
2023-04-23T20:05:46.107Z,2.17
2023-04-23T20:08:25.427Z,2.58
2023-04-23T20:10:53.749Z,2.20
2023-04-23T20:13:21.694Z,1.80
2023-04-23T20:15:50.269Z,1.48
2023-04-23T20:18:19.851Z,1.98
2023-04-23T20:20:47.837Z,1.60
2023-04-23T20:23:15.605Z,1.50
2023-04-23T20:25:43.865Z,1.40
2023-04-23T20:28:12.938Z,1.60
2023-04-23T20:30:40.731Z,1.40
2023-04-23T20:33:10.475Z,1.40
2023-04-23T20:35:41.941Z,1.60
2023-04-23T20:38:09.866Z,1.40
2023-04-23T20:40:37.717Z,1.50
2023-04-23T20:43:05.582Z,1.73
2023-04-23T20:45:34.472Z,1.50
2023-04-23T20:48:03.784Z,1.67
2023-04-23T20:50:32.090Z,1.30
2023-04-23T20:53:01.274Z,1.17
2023-04-23T20:55:29.113Z,1.00
2023-04-23T20:57:56.880Z,0.88
2023-04-23T21:00:25.019Z,0.68
2023-04-23T21:02:53.608Z,0.75
2023-04-23T21:05:21.735Z,0.57
2023-04-23T21:07:50.762Z,0.60
2023-04-23T21:10:20.345Z,0.50
2023-04-23T21:12:48.553Z,0.40
2023-04-23T21:15:17.654Z,0.40
2023-04-23T21:17:45.566Z,0.50
2023-04-23T21:20:13.897Z,0.30
2023-04-23T21:22:41.819Z,0.50
2023-04-23T21:25:10.462Z,0.33
2023-04-23T21:27:39.893Z,0.43
2023-04-23T21:30:14.098Z,0.30
2023-04-23T21:32:42.768Z,0.32
2023-04-23T21:35:10.752Z,0.35
2023-04-23T21:37:38.741Z,0.60
2023-04-23T21:40:09.093Z,0.30
2023-04-23T21:42:37.039Z,0.53
2023-04-23T21:45:07.450Z,0.40
2023-04-23T21:47:35.326Z,0.50
2023-04-23T21:50:03.265Z,0.70
2023-04-23T21:52:31.171Z,0.47
2023-04-23T21:54:59.034Z,0.50
2023-04-23T21:57:26.934Z,0.60
2023-04-23T21:59:54.792Z,0.67
2023-04-23T22:02:24.227Z,0.60
2023-04-23T22:04:52.116Z,0.77
2023-04-23T22:07:20.684Z,0.60
2023-04-23T22:09:48.672Z,0.70
2023-04-23T22:12:16.498Z,0.80
2023-04-23T22:14:44.475Z,0.63
2023-04-23T22:17:13.137Z,0.60
2023-04-23T22:19:42.622Z,0.70
2023-04-23T22:22:10.649Z,0.70
2023-04-23T22:24:38.418Z,0.60
2023-04-23T22:27:06.618Z,0.70
2023-04-23T22:29:35.277Z,0.60
2023-04-23T22:32:03.196Z,0.70
2023-04-23T22:34:31.109Z,0.70
2023-04-23T22:37:00.411Z,0.60
2023-04-23T22:39:28.313Z,0.60
2023-04-23T22:41:56.809Z,1.07
2023-04-23T22:44:24.604Z,1.27
2023-04-23T22:46:52.397Z,0.97
2023-04-23T22:49:20.297Z,0.70
2023-04-23T22:51:49.668Z,0.70
2023-04-23T22:54:19.173Z,0.70
2023-04-23T22:56:47.046Z,0.63
2023-04-23T22:59:15.029Z,0.77
2023-04-23T23:01:43.186Z,0.70
2023-04-23T23:04:13.018Z,0.70
2023-04-23T23:06:42.954Z,0.60
2023-04-23T23:09:10.985Z,0.70
2023-04-23T23:11:40.497Z,0.67
2023-04-23T23:14:08.567Z,0.90
2023-04-23T23:16:36.358Z,0.90
2023-04-23T23:19:04.153Z,0.87
2023-04-23T23:21:32.318Z,0.90
2023-04-23T23:24:00.175Z,0.90
2023-04-23T23:26:28.765Z,1.00
2023-04-23T23:28:57.877Z,0.90
2023-04-23T23:31:26.135Z,1.10
2023-04-23T23:33:54.241Z,0.57
2023-04-23T23:36:22.074Z,0.50
2023-04-23T23:38:50.793Z,0.60
2023-04-23T23:41:18.598Z,0.50
2023-04-23T23:43:46.525Z,0.40
2023-04-23T23:46:17.930Z,0.53
2023-04-23T23:48:45.905Z,0.50
2023-04-23T23:51:14.349Z,0.60
2023-04-23T23:53:42.192Z,0.50
2023-04-23T23:56:10.181Z,0.30
2023-04-23T23:58:38.121Z,0.40
